sensor_id;sensor_type;location;lat;lon;timestamp;pressure;altitude;pressure_sealevel;temperature;humidity
28683;BME280;15862;43.062;25.626;2023-02-16T00:01:25;101570.81;;;-2.34;100.00
28683;BME280;15862;43.062;25.626;2023-02-16T00:03:53;101560.66;;;-2.42;100.00
28683;BME280;15862;43.062;25.626;2023-02-16T00:06:19;101569.94;;;-2.39;100.00
28683;BME280;15862;43.062;25.626;2023-02-16T00:08:49;101564.88;;;-2.39;100.00
28683;BME280;15862;43.062;25.626;2023-02-16T00:11:30;101537.84;;;-2.55;100.00
28683;BME280;15862;43.062;25.626;2023-02-16T00:14:15;101552.19;;;-2.50;100.00
28683;BME280;15862;43.062;25.626;2023-02-16T00:16:41;101561.44;;;-2.53;100.00
28683;BME280;15862;43.062;25.626;2023-02-16T00:19:35;101548.72;;;-2.65;100.00
28683;BME280;15862;43.062;25.626;2023-02-16T00:22:02;101546.19;;;-2.70;100.00
28683;BME280;15862;43.062;25.626;2023-02-16T00:24:29;101556.34;;;-2.59;100.00
28683;BME280;15862;43.062;25.626;2023-02-16T00:26:56;101561.44;;;-2.56;100.00
28683;BME280;15862;43.062;25.626;2023-02-16T00:29:31;101571.53;;;-2.59;100.00
28683;BME280;15862;43.062;25.626;2023-02-16T00:31:58;101568.13;;;-2.61;100.00
28683;BME280;15862;43.062;25.626;2023-02-16T00:34:43;101566.47;;;-2.59;100.00
28683;BME280;15862;43.062;25.626;2023-02-16T00:37:11;101568.16;;;-2.58;100.00
28683;BME280;15862;43.062;25.626;2023-02-16T00:39:38;101561.41;;;-2.59;100.00
28683;BME280;15862;43.062;25.626;2023-02-16T00:42:25;101563.09;;;-2.58;100.00
28683;BME280;15862;43.062;25.626;2023-02-16T00:44:54;101557.19;;;-2.63;100.00
28683;BME280;15862;43.062;25.626;2023-02-16T00:47:21;101556.31;;;-2.65;100.00
28683;BME280;15862;43.062;25.626;2023-02-16T00:49:52;101552.97;;;-2.66;100.00
28683;BME280;15862;43.062;25.626;2023-02-16T00:52:34;101557.16;;;-2.69;100.00
28683;BME280;15862;43.062;25.626;2023-02-16T00:55:02;101562.19;;;-2.71;100.00
28683;BME280;15862;43.062;25.626;2023-02-16T00:57:32;101552.91;;;-2.73;100.00
28683;BME280;15862;43.062;25.626;2023-02-16T01:00:24;101551.19;;;-2.77;100.00
28683;BME280;15862;43.062;25.626;2023-02-16T01:02:48;101544.41;;;-2.80;100.00
28683;BME280;15862;43.062;25.626;2023-02-16T01:05:15;101533.44;;;-2.86;100.00
28683;BME280;15862;43.062;25.626;2023-02-16T01:07:40;101546.16;;;-2.74;100.00
28683;BME280;15862;43.062;25.626;2023-02-16T01:10:25;101540.19;;;-2.85;100.00
28683;BME280;15862;43.062;25.626;2023-02-16T01:13:10;101536.81;;;-2.89;100.00
28683;BME280;15862;43.062;25.626;2023-02-16T01:15:37;101529.19;;;-2.93;100.00
28683;BME280;15862;43.062;25.626;2023-02-16T01:18:03;101539.38;;;-2.84;100.00
28683;BME280;15862;43.062;25.626;2023-02-16T01:20:29;101535.97;;;-2.88;100.00
28683;BME280;15862;43.062;25.626;2023-02-16T01:22:54;101541.00;;;-2.89;100.00
28683;BME280;15862;43.062;25.626;2023-02-16T01:25:20;101526.63;;;-2.96;100.00
28683;BME280;15862;43.062;25.626;2023-02-16T01:27:46;101526.63;;;-2.98;100.00
28683;BME280;15862;43.062;25.626;2023-02-16T01:30:22;101530.84;;;-2.98;100.00
28683;BME280;15862;43.062;25.626;2023-02-16T01:32:48;101528.28;;;-3.03;100.00
28683;BME280;15862;43.062;25.626;2023-02-16T01:35:28;101519.00;;;-3.02;100.00
28683;BME280;15862;43.062;25.626;2023-02-16T01:37:54;101522.38;;;-3.02;100.00
28683;BME280;15862;43.062;25.626;2023-02-16T01:45:33;101525.69;;;-3.13;100.00
28683;BME280;15862;43.062;25.626;2023-02-16T01:48:08;101515.56;;;-3.16;100.00
28683;BME280;15862;43.062;25.626;2023-02-16T01:53:27;101531.59;;;-3.08;100.00
28683;BME280;15862;43.062;25.626;2023-02-16T01:55:59;101531.63;;;-3.05;100.00
28683;BME280;15862;43.062;25.626;2023-02-16T01:58:49;101518.97;;;-3.05;100.00
28683;BME280;15862;43.062;25.626;2023-02-16T02:01:37;101522.38;;;-3.04;100.00
28683;BME280;15862;43.062;25.626;2023-02-16T02:04:35;101525.69;;;-3.10;100.00
28683;BME280;15862;43.062;25.626;2023-02-16T02:10:34;101525.56;;;-3.28;100.00
28683;BME280;15862;43.062;25.626;2023-02-16T02:13:10;101504.44;;;-3.39;100.00
28683;BME280;15862;43.062;25.626;2023-02-16T02:15:39;101513.69;;;-3.39;100.00
28683;BME280;15862;43.062;25.626;2023-02-16T02:18:04;101527.19;;;-3.33;100.00
28683;BME280;15862;43.062;25.626;2023-02-16T02:34:41;101529.69;;;-3.39;100.00
28683;BME280;15862;43.062;25.626;2023-02-16T02:45:44;101518.56;;;-3.56;100.00
28683;BME280;15862;43.062;25.626;2023-02-16T02:48:08;101526.16;;;-3.59;100.00
28683;BME280;15862;43.062;25.626;2023-02-16T02:50:46;101526.97;;;-3.60;100.00
28683;BME280;15862;43.062;25.626;2023-02-16T02:53:48;101533.72;;;-3.60;100.00
28683;BME280;15862;43.062;25.626;2023-02-16T02:56:15;101539.59;;;-3.58;100.00
28683;BME280;15862;43.062;25.626;2023-02-16T02:59:17;101534.50;;;-3.63;100.00
28683;BME280;15862;43.062;25.626;2023-02-16T03:02:01;101538.75;;;-3.57;100.00
28683;BME280;15862;43.062;25.626;2023-02-16T03:04:29;101528.63;;;-3.62;100.00
28683;BME280;15862;43.062;25.626;2023-02-16T03:06:57;101533.66;;;-3.62;100.00
28683;BME280;15862;43.062;25.626;2023-02-16T03:09:23;101537.91;;;-3.61;100.00
28683;BME280;15862;43.062;25.626;2023-02-16T03:11:52;101537.13;;;-3.55;100.00
28683;BME280;15862;43.062;25.626;2023-02-16T03:14:55;101533.75;;;-3.53;100.00
28683;BME280;15862;43.062;25.626;2023-02-16T03:17:26;101537.16;;;-3.51;100.00
28683;BME280;15862;43.062;25.626;2023-02-16T03:20:13;101539.69;;;-3.51;100.00
28683;BME280;15862;43.062;25.626;2023-02-16T03:22:59;101542.19;;;-3.51;100.00
28683;BME280;15862;43.062;25.626;2023-02-16T03:25:44;101528.63;;;-3.65;100.00
28683;BME280;15862;43.062;25.626;2023-02-16T03:28:30;101552.25;;;-3.54;100.00
28683;BME280;15862;43.062;25.626;2023-02-16T03:31:19;101532.06;;;-3.54;100.00
28683;BME280;15862;43.062;25.626;2023-02-16T03:33:48;101538.81;;;-3.53;100.00
28683;BME280;15862;43.062;25.626;2023-02-16T03:36:21;101540.47;;;-3.55;100.00
28683;BME280;15862;43.062;25.626;2023-02-16T03:38:47;101530.31;;;-3.61;100.00
28683;BME280;15862;43.062;25.626;2023-02-16T03:41:12;101544.59;;;-3.63;100.00
28683;BME280;15862;43.062;25.626;2023-02-16T03:43:38;101536.16;;;-3.68;100.00
28683;BME280;15862;43.062;25.626;2023-02-16T03:46:03;101538.56;;;-3.77;100.00
28683;BME280;15862;43.062;25.626;2023-02-16T03:48:29;101541.16;;;-3.72;100.00
28683;BME280;15862;43.062;25.626;2023-02-16T03:50:54;101538.63;;;-3.74;100.00
28683;BME280;15862;43.062;25.626;2023-02-16T03:53:19;101540.28;;;-3.76;100.00
28683;BME280;15862;43.062;25.626;2023-02-16T03:55:46;101532.69;;;-3.77;100.00
28683;BME280;15862;43.062;25.626;2023-02-16T03:58:17;101530.91;;;-3.87;100.00
28683;BME280;15862;43.062;25.626;2023-02-16T04:00:44;101542.78;;;-3.74;100.00
28683;BME280;15862;43.062;25.626;2023-02-16T04:03:09;101541.13;;;-3.74;100.00
28683;BME280;15862;43.062;25.626;2023-02-16T04:05:36;101538.56;;;-3.79;100.00
28683;BME280;15862;43.062;25.626;2023-02-16T04:08:02;101537.63;;;-3.89;100.00
28683;BME280;15862;43.062;25.626;2023-02-16T04:10:28;101544.34;;;-3.88;100.00
28683;BME280;15862;43.062;25.626;2023-02-16T04:12:53;101537.63;;;-3.89;100.00
28683;BME280;15862;43.062;25.626;2023-02-16T04:15:21;101531.72;;;-3.92;100.00
28683;BME280;15862;43.062;25.626;2023-02-16T04:17:47;101537.53;;;-3.96;100.00
28683;BME280;15862;43.062;25.626;2023-02-16T04:20:16;101543.47;;;-3.91;100.00
28683;BME280;15862;43.062;25.626;2023-02-16T04:22:42;101540.00;;;-3.99;100.00
28683;BME280;15862;43.062;25.626;2023-02-16T04:25:08;101522.28;;;-4.08;100.00
28683;BME280;15862;43.062;25.626;2023-02-16T04:27:35;101531.56;;;-4.04;100.00
28683;BME280;15862;43.062;25.626;2023-02-16T04:30:00;101533.31;;;-3.97;100.00
28683;BME280;15862;43.062;25.626;2023-02-16T04:32:26;101535.00;;;-3.96;100.00
28683;BME280;15862;43.062;25.626;2023-02-16T04:34:52;101530.78;;;-3.97;100.00
28683;BME280;15862;43.062;25.626;2023-02-16T04:37:17;101539.22;;;-3.95;100.00
28683;BME280;15862;43.062;25.626;2023-02-16T04:39:43;101538.41;;;-3.94;100.00
28683;BME280;15862;43.062;25.626;2023-02-16T04:42:08;101535.94;;;-3.90;100.00
28683;BME280;15862;43.062;25.626;2023-02-16T04:44:33;101540.09;;;-3.93;100.00
28683;BME280;15862;43.062;25.626;2023-02-16T04:46:59;101540.94;;;-3.93;100.00
28683;BME280;15862;43.062;25.626;2023-02-16T04:49:24;101539.28;;;-3.91;100.00
28683;BME280;15862;43.062;25.626;2023-02-16T04:51:50;101546.91;;;-3.86;100.00
28683;BME280;15862;43.062;25.626;2023-02-16T04:54:16;101540.06;;;-3.96;100.00
28683;BME280;15862;43.062;25.626;2023-02-16T04:56:45;101547.69;;;-3.90;100.00
28683;BME280;15862;43.062;25.626;2023-02-16T04:59:11;101535.88;;;-3.94;100.00
28683;BME280;15862;43.062;25.626;2023-02-16T05:01:38;101530.69;;;-4.08;100.00
28683;BME280;15862;43.062;25.626;2023-02-16T05:04:03;101542.53;;;-4.01;100.00
28683;BME280;15862;43.062;25.626;2023-02-16T05:06:29;101550.03;;;-4.05;100.00
28683;BME280;15862;43.062;25.626;2023-02-16T05:08:54;101536.59;;;-4.07;100.00
28683;BME280;15862;43.062;25.626;2023-02-16T05:11:20;101553.44;;;-4.03;100.00
28683;BME280;15862;43.062;25.626;2023-02-16T05:14:04;101549.97;;;-4.11;100.00
28683;BME280;15862;43.062;25.626;2023-02-16T05:16:48;101544.97;;;-4.08;100.00
28683;BME280;15862;43.062;25.626;2023-02-16T05:19:13;101545.75;;;-4.14;100.00
28683;BME280;15862;43.062;25.626;2023-02-16T05:21:39;101545.81;;;-4.09;100.00
28683;BME280;15862;43.062;25.626;2023-02-16T05:24:07;101551.63;;;-4.13;100.00
28683;BME280;15862;43.062;25.626;2023-02-16T05:26:34;101550.09;;;-4.02;100.00
28683;BME280;15862;43.062;25.626;2023-02-16T05:29:00;101533.19;;;-4.09;100.00
28683;BME280;15862;43.062;25.626;2023-02-16T05:31:27;101555.28;;;-3.87;100.00
28683;BME280;15862;43.062;25.626;2023-02-16T05:33:52;101558.69;;;-3.82;100.00
28683;BME280;15862;43.062;25.626;2023-02-16T05:36:18;101575.63;;;-3.73;100.00
28683;BME280;15862;43.062;25.626;2023-02-16T05:38:44;101576.53;;;-3.66;100.00
28683;BME280;15862;43.062;25.626;2023-02-16T05:41:10;101566.63;;;-3.50;100.00
28683;BME280;15862;43.062;25.626;2023-02-16T05:43:35;101568.38;;;-3.41;100.00
28683;BME280;15862;43.062;25.626;2023-02-16T05:46:07;101571.81;;;-3.32;100.00
28683;BME280;15862;43.062;25.626;2023-02-16T05:48:33;101573.59;;;-3.20;100.00
28683;BME280;15862;43.062;25.626;2023-02-16T05:50:58;101578.75;;;-3.11;100.00
28683;BME280;15862;43.062;25.626;2023-02-16T05:53:24;101574.69;;;-2.93;100.00
28683;BME280;15862;43.062;25.626;2023-02-16T05:55:49;101571.31;;;-2.92;100.00
28683;BME280;15862;43.062;25.626;2023-02-16T05:58:14;101583.28;;;-2.64;100.00
28683;BME280;15862;43.062;25.626;2023-02-16T06:00:40;101589.31;;;-2.46;100.00
28683;BME280;15862;43.062;25.626;2023-02-16T06:03:05;101598.69;;;-2.28;100.00
28683;BME280;15862;43.062;25.626;2023-02-16T06:05:30;101592.03;;;-2.04;100.00
28683;BME280;15862;43.062;25.626;2023-02-16T06:07:57;101589.56;;;-1.89;100.00
28683;BME280;15862;43.062;25.626;2023-02-16T06:10:22;101590.47;;;-1.77;100.00
28683;BME280;15862;43.062;25.626;2023-02-16T06:12:48;101583.72;;;-1.72;100.00
28683;BME280;15862;43.062;25.626;2023-02-16T06:15:13;101572.75;;;-1.65;100.00
28683;BME280;15862;43.062;25.626;2023-02-16T06:17:38;101604.03;;;-1.36;100.00
28683;BME280;15862;43.062;25.626;2023-02-16T06:20:04;101612.53;;;-1.19;100.00
28683;BME280;15862;43.062;25.626;2023-02-16T06:22:30;101614.22;;;-0.97;100.00
28683;BME280;15862;43.062;25.626;2023-02-16T06:24:55;101618.44;;;-0.59;100.00
28683;BME280;15862;43.062;25.626;2023-02-16T06:27:21;101633.28;;;0.48;100.00
28683;BME280;15862;43.062;25.626;2023-02-16T06:29:46;101638.16;;;1.83;100.00
28683;BME280;15862;43.062;25.626;2023-02-16T06:32:12;101651.50;;;2.72;100.00
28683;BME280;15862;43.062;25.626;2023-02-16T06:34:37;101641.66;;;3.55;100.00
28683;BME280;15862;43.062;25.626;2023-02-16T06:37:03;101660.63;;;4.32;100.00
28683;BME280;15862;43.062;25.626;2023-02-16T06:39:28;101629.00;;;4.75;100.00
28683;BME280;15862;43.062;25.626;2023-02-16T06:41:54;101601.72;;;5.42;100.00
28683;BME280;15862;43.062;25.626;2023-02-16T06:44:19;101563.03;;;6.13;100.00
28683;BME280;15862;43.062;25.626;2023-02-16T06:46:45;101542.66;;;7.15;100.00
28683;BME280;15862;43.062;25.626;2023-02-16T06:49:15;101528.28;;;7.58;97.63
28683;BME280;15862;43.062;25.626;2023-02-16T06:51:45;101542.88;;;8.49;82.85
28683;BME280;15862;43.062;25.626;2023-02-16T06:54:10;101520.13;;;8.80;73.86
28683;BME280;15862;43.062;25.626;2023-02-16T06:56:36;101539.38;;;9.33;70.78
28683;BME280;15862;43.062;25.626;2023-02-16T06:59:02;101527.13;;;9.58;62.03
28683;BME280;15862;43.062;25.626;2023-02-16T07:01:28;101540.97;;;10.13;59.53
28683;BME280;15862;43.062;25.626;2023-02-16T07:03:54;101538.66;;;10.61;57.36
28683;BME280;15862;43.062;25.626;2023-02-16T07:06:21;101537.28;;;11.23;49.82
28683;BME280;15862;43.062;25.626;2023-02-16T07:08:47;101527.78;;;11.07;48.71
28683;BME280;15862;43.062;25.626;2023-02-16T07:11:12;101531.78;;;11.95;47.95
28683;BME280;15862;43.062;25.626;2023-02-16T07:13:38;101533.22;;;12.01;45.42
28683;BME280;15862;43.062;25.626;2023-02-16T07:16:04;101522.81;;;12.33;45.38
28683;BME280;15862;43.062;25.626;2023-02-16T07:18:31;101507.66;;;13.72;42.84
28683;BME280;15862;43.062;25.626;2023-02-16T07:20:57;101527.78;;;14.24;41.61
28683;BME280;15862;43.062;25.626;2023-02-16T07:23:22;101512.34;;;15.00;39.80
28683;BME280;15862;43.062;25.626;2023-02-16T07:25:48;101513.47;;;14.84;38.99
28683;BME280;15862;43.062;25.626;2023-02-16T07:28:14;101513.25;;;14.87;39.40
28683;BME280;15862;43.062;25.626;2023-02-16T07:30:39;101503.50;;;15.03;38.62
28683;BME280;15862;43.062;25.626;2023-02-16T07:33:05;101514.97;;;15.51;38.09
28683;BME280;15862;43.062;25.626;2023-02-16T07:35:37;101501.94;;;16.00;37.50
28683;BME280;15862;43.062;25.626;2023-02-16T07:38:03;101495.50;;;16.64;36.48
28683;BME280;15862;43.062;25.626;2023-02-16T07:40:29;101489.44;;;16.64;35.81
28683;BME280;15862;43.062;25.626;2023-02-16T07:42:58;101488.72;;;16.62;35.96
28683;BME280;15862;43.062;25.626;2023-02-16T07:45:24;101477.66;;;16.82;35.27
28683;BME280;15862;43.062;25.626;2023-02-16T07:47:49;101469.13;;;16.90;35.07
28683;BME280;15862;43.062;25.626;2023-02-16T07:50:14;101468.16;;;16.81;35.40
28683;BME280;15862;43.062;25.626;2023-02-16T07:52:40;101474.34;;;16.90;35.15
28683;BME280;15862;43.062;25.626;2023-02-16T07:55:06;101470.41;;;16.51;35.92
28683;BME280;15862;43.062;25.626;2023-02-16T07:57:32;101462.91;;;16.46;36.13
28683;BME280;15862;43.062;25.626;2023-02-16T07:59:57;101453.72;;;16.64;36.16
28683;BME280;15862;43.062;25.626;2023-02-16T08:02:23;101476.06;;;17.37;35.11
28683;BME280;15862;43.062;25.626;2023-02-16T08:04:49;101467.00;;;17.95;34.36
28683;BME280;15862;43.062;25.626;2023-02-16T08:07:17;101459.94;;;18.91;33.69
28683;BME280;15862;43.062;25.626;2023-02-16T08:09:42;101454.75;;;19.01;32.76
28683;BME280;15862;43.062;25.626;2023-02-16T08:12:12;101441.69;;;19.51;31.88
28683;BME280;15862;43.062;25.626;2023-02-16T08:14:38;101443.47;;;19.50;31.94
28683;BME280;15862;43.062;25.626;2023-02-16T08:17:04;101445.66;;;20.43;31.40
28683;BME280;15862;43.062;25.626;2023-02-16T08:19:30;101442.59;;;21.23;30.14
28683;BME280;15862;43.062;25.626;2023-02-16T08:21:57;101444.16;;;21.88;29.97
28683;BME280;15862;43.062;25.626;2023-02-16T08:24:24;101451.78;;;22.35;28.82
28683;BME280;15862;43.062;25.626;2023-02-16T08:26:50;101446.84;;;22.23;28.88
28683;BME280;15862;43.062;25.626;2023-02-16T08:29:19;101438.88;;;22.33;28.25
28683;BME280;15862;43.062;25.626;2023-02-16T08:31:45;101438.22;;;22.31;28.74
28683;BME280;15862;43.062;25.626;2023-02-16T08:34:13;101445.06;;;21.97;29.22
28683;BME280;15862;43.062;25.626;2023-02-16T08:36:41;101433.75;;;22.14;29.73
28683;BME280;15862;43.062;25.626;2023-02-16T08:39:17;101432.03;;;22.39;28.97
28683;BME280;15862;43.062;25.626;2023-02-16T08:41:45;101434.19;;;22.96;28.39
28683;BME280;15862;43.062;25.626;2023-02-16T08:44:11;101429.28;;;23.01;28.61
28683;BME280;15862;43.062;25.626;2023-02-16T08:46:47;101428.69;;;23.07;28.77
28683;BME280;15862;43.062;25.626;2023-02-16T08:49:14;101425.31;;;23.89;27.55
28683;BME280;15862;43.062;25.626;2023-02-16T08:51:43;101430.41;;;22.99;28.30
28683;BME280;15862;43.062;25.626;2023-02-16T08:54:14;101422.91;;;21.36;30.08
28683;BME280;15862;43.062;25.626;2023-02-16T08:56:41;101418.56;;;19.75;32.31
28683;BME280;15862;43.062;25.626;2023-02-16T08:59:10;101418.28;;;18.37;34.92
28683;BME280;15862;43.062;25.626;2023-02-16T09:01:35;101419.19;;;18.15;35.78
28683;BME280;15862;43.062;25.626;2023-02-16T09:04:01;101414.03;;;19.77;33.81
28683;BME280;15862;43.062;25.626;2023-02-16T09:06:27;101403.56;;;21.18;31.73
28683;BME280;15862;43.062;25.626;2023-02-16T09:08:54;101394.19;;;21.79;30.48
28683;BME280;15862;43.062;25.626;2023-02-16T09:11:21;101407.59;;;23.40;28.97
28683;BME280;15862;43.062;25.626;2023-02-16T09:13:47;101410.75;;;24.34;27.66
28683;BME280;15862;43.062;25.626;2023-02-16T09:16:18;101404.78;;;24.96;26.96
28683;BME280;15862;43.062;25.626;2023-02-16T09:18:44;101394.88;;;26.21;25.92
28683;BME280;15862;43.062;25.626;2023-02-16T09:21:21;101393.63;;;26.39;25.76
28683;BME280;15862;43.062;25.626;2023-02-16T09:23:48;101393.16;;;27.09;25.16
28683;BME280;15862;43.062;25.626;2023-02-16T09:26:18;101389.59;;;27.45;24.68
28683;BME280;15862;43.062;25.626;2023-02-16T09:28:45;101383.56;;;27.22;24.41
28683;BME280;15862;43.062;25.626;2023-02-16T09:31:20;101389.06;;;27.35;24.73
28683;BME280;15862;43.062;25.626;2023-02-16T09:33:53;101381.34;;;27.69;24.43
28683;BME280;15862;43.062;25.626;2023-02-16T09:36:18;101375.22;;;28.46;23.65
28683;BME280;15862;43.062;25.626;2023-02-16T09:38:44;101372.44;;;29.02;23.20
28683;BME280;15862;43.062;25.626;2023-02-16T09:44:02;101362.31;;;28.43;23.30
28683;BME280;15862;43.062;25.626;2023-02-16T09:46:31;101357.56;;;28.38;23.36
28683;BME280;15862;43.062;25.626;2023-02-16T09:49:00;101346.53;;;27.64;24.44
28683;BME280;15862;43.062;25.626;2023-02-16T09:51:38;101346.53;;;27.79;23.99
28683;BME280;15862;43.062;25.626;2023-02-16T10:08:31;101325.16;;;29.10;23.36
28683;BME280;15862;43.062;25.626;2023-02-16T10:13:55;101306.38;;;28.63;22.69
28683;BME280;15862;43.062;25.626;2023-02-16T10:16:29;101309.56;;;29.41;22.79
28683;BME280;15862;43.062;25.626;2023-02-16T10:18:57;101311.00;;;29.44;21.83
28683;BME280;15862;43.062;25.626;2023-02-16T10:21:27;101305.94;;;29.61;21.23
28683;BME280;15862;43.062;25.626;2023-02-16T10:23:57;101306.19;;;29.33;22.18
28683;BME280;15862;43.062;25.626;2023-02-16T10:26:31;101305.22;;;30.32;21.29
28683;BME280;15862;43.062;25.626;2023-02-16T10:29:02;101296.53;;;30.95;20.29
28683;BME280;15862;43.062;25.626;2023-02-16T10:42:47;101273.84;;;30.15;20.83
28683;BME280;15862;43.062;25.626;2023-02-16T10:45:55;101271.91;;;29.70;20.44
28683;BME280;15862;43.062;25.626;2023-02-16T10:48:23;101271.00;;;29.37;21.00
28683;BME280;15862;43.062;25.626;2023-02-16T10:51:02;101267.66;;;30.33;20.44
28683;BME280;15862;43.062;25.626;2023-02-16T10:55:56;101271.13;;;30.40;20.61
28683;BME280;15862;43.062;25.626;2023-02-16T10:58:25;101263.44;;;31.08;20.28
28683;BME280;15862;43.062;25.626;2023-02-16T11:01:02;101261.06;;;31.31;19.89
28683;BME280;15862;43.062;25.626;2023-02-16T11:03:41;101247.44;;;31.77;19.55
28683;BME280;15862;43.062;25.626;2023-02-16T11:06:21;101243.72;;;32.08;19.83
28683;BME280;15862;43.062;25.626;2023-02-16T11:08:52;101242.72;;;31.79;19.24
28683;BME280;15862;43.062;25.626;2023-02-16T11:11:20;101238.81;;;31.44;19.97
28683;BME280;15862;43.062;25.626;2023-02-16T11:13:48;101240.56;;;31.63;19.31
28683;BME280;15862;43.062;25.626;2023-02-16T11:16:21;101226.50;;;31.74;19.67
28683;BME280;15862;43.062;25.626;2023-02-16T11:19:04;101229.84;;;32.18;18.77
28683;BME280;15862;43.062;25.626;2023-02-16T11:21:49;101215.53;;;31.13;19.17
28683;BME280;15862;43.062;25.626;2023-02-16T11:24:36;101210.69;;;31.35;18.30
28683;BME280;15862;43.062;25.626;2023-02-16T11:27:21;101203.19;;;31.81;18.57
28683;BME280;15862;43.062;25.626;2023-02-16T11:29:48;101197.78;;;30.75;19.73
28683;BME280;15862;43.062;25.626;2023-02-16T11:32:17;101198.28;;;30.59;19.33
28683;BME280;15862;43.062;25.626;2023-02-16T11:39:51;101191.53;;;29.00;20.13
28683;BME280;15862;43.062;25.626;2023-02-16T11:44:54;101189.47;;;31.09;19.38
28683;BME280;15862;43.062;25.626;2023-02-16T11:47:22;101162.03;;;30.76;19.39
28683;BME280;15862;43.062;25.626;2023-02-16T11:50:05;101180.66;;;31.02;19.38
28683;BME280;15862;43.062;25.626;2023-02-16T11:52:31;101164.56;;;31.08;19.60
28683;BME280;15862;43.062;25.626;2023-02-16T11:54:59;101148.66;;;30.83;19.66
28683;BME280;15862;43.062;25.626;2023-02-16T11:57:31;101164.66;;;31.64;19.03
28683;BME280;15862;43.062;25.626;2023-02-16T11:59:59;101152.28;;;30.44;19.73
28683;BME280;15862;43.062;25.626;2023-02-16T12:13:24;101134.38;;;30.58;19.76
28683;BME280;15862;43.062;25.626;2023-02-16T12:16:00;101127.31;;;30.20;19.88
28683;BME280;15862;43.062;25.626;2023-02-16T12:24:11;101118.34;;;28.03;21.38
28683;BME280;15862;43.062;25.626;2023-02-16T12:26:52;101101.19;;;28.05;21.42
28683;BME280;15862;43.062;25.626;2023-02-16T12:37:51;101092.81;;;28.42;21.04
28683;BME280;15862;43.062;25.626;2023-02-16T12:45:46;101079.38;;;25.85;23.70
28683;BME280;15862;43.062;25.626;2023-02-16T12:51:00;101066.38;;;26.62;23.62
28683;BME280;15862;43.062;25.626;2023-02-16T12:53:41;101071.25;;;26.80;23.49
28683;BME280;15862;43.062;25.626;2023-02-16T12:56:16;101062.19;;;26.74;23.01
28683;BME280;15862;43.062;25.626;2023-02-16T12:58:45;101079.00;;;26.17;23.94
28683;BME280;15862;43.062;25.626;2023-02-16T13:01:15;101070.00;;;23.63;26.59
28683;BME280;15862;43.062;25.626;2023-02-16T13:03:50;101071.16;;;22.14;28.27
28683;BME280;15862;43.062;25.626;2023-02-16T13:12:07;101058.31;;;18.72;33.04
28683;BME280;15862;43.062;25.626;2023-02-16T13:14:39;101058.66;;;18.39;33.30
28683;BME280;15862;43.062;25.626;2023-02-16T13:17:14;101064.13;;;17.97;33.88
28683;BME280;15862;43.062;25.626;2023-02-16T13:19:41;101056.91;;;17.89;34.40
28683;BME280;15862;43.062;25.626;2023-02-16T13:22:21;101048.03;;;17.71;34.37
28683;BME280;15862;43.062;25.626;2023-02-16T13:44:49;101022.72;;;15.16;39.48
28683;BME280;15862;43.062;25.626;2023-02-16T13:47:21;101035.13;;;15.12;40.67
28683;BME280;15862;43.062;25.626;2023-02-16T13:49:59;101030.31;;;14.84;41.31
28683;BME280;15862;43.062;25.626;2023-02-16T13:52:40;101034.00;;;14.69;41.84
28683;BME280;15862;43.062;25.626;2023-02-16T14:00:44;101039.63;;;14.52;42.71
28683;BME280;15862;43.062;25.626;2023-02-16T14:05:50;101037.09;;;14.28;43.10
28683;BME280;15862;43.062;25.626;2023-02-16T14:15:55;101031.31;;;13.74;45.00
28683;BME280;15862;43.062;25.626;2023-02-16T14:21:19;101024.69;;;13.58;45.83
28683;BME280;15862;43.062;25.626;2023-02-16T14:23:59;101016.25;;;13.30;46.95
28683;BME280;15862;43.062;25.626;2023-02-16T14:26:25;101033.25;;;13.34;47.19
28683;BME280;15862;43.062;25.626;2023-02-16T14:28:57;101028.31;;;13.31;47.15
28683;BME280;15862;43.062;25.626;2023-02-16T14:31:26;101025.38;;;13.23;48.31
28683;BME280;15862;43.062;25.626;2023-02-16T14:34:02;101013.34;;;13.22;48.18
28683;BME280;15862;43.062;25.626;2023-02-16T14:36:30;101021.09;;;13.09;48.49
28683;BME280;15862;43.062;25.626;2023-02-16T14:38:57;101015.19;;;13.07;48.65
28683;BME280;15862;43.062;25.626;2023-02-16T14:41:27;101012.34;;;12.98;49.54
28683;BME280;15862;43.062;25.626;2023-02-16T14:49:45;101023.84;;;12.68;50.95
28683;BME280;15862;43.062;25.626;2023-02-16T14:57:42;101023.78;;;12.29;53.31
28683;BME280;15862;43.062;25.626;2023-02-16T15:03:15;101027.91;;;12.05;54.62
28683;BME280;15862;43.062;25.626;2023-02-16T15:05:42;101027.34;;;12.00;54.89
28683;BME280;15862;43.062;25.626;2023-02-16T15:08:21;101028.09;;;11.88;55.67
28683;BME280;15862;43.062;25.626;2023-02-16T15:10:49;101029.22;;;11.84;55.65
28683;BME280;15862;43.062;25.626;2023-02-16T15:13:26;101032.16;;;11.78;55.29
28683;BME280;15862;43.062;25.626;2023-02-16T15:15:54;101033.44;;;11.57;60.10
28683;BME280;15862;43.062;25.626;2023-02-16T15:18:42;101025.41;;;11.19;70.06
28683;BME280;15862;43.062;25.626;2023-02-16T15:21:20;101029.91;;;10.86;73.09
28683;BME280;15862;43.062;25.626;2023-02-16T15:23:51;101037.06;;;10.67;75.96
28683;BME280;15862;43.062;25.626;2023-02-16T15:26:21;101020.41;;;10.42;77.05
28683;BME280;15862;43.062;25.626;2023-02-16T15:28:55;101032.72;;;10.21;79.79
28683;BME280;15862;43.062;25.626;2023-02-16T15:31:30;101037.81;;;9.90;82.26
28683;BME280;15862;43.062;25.626;2023-02-16T15:34:09;101033.09;;;9.66;85.06
28683;BME280;15862;43.062;25.626;2023-02-16T15:36:39;101034.88;;;9.49;86.37
28683;BME280;15862;43.062;25.626;2023-02-16T15:41:53;101037.31;;;9.01;89.75